createdAt,value
2022-12-15T00:02:13.302Z,7.83
2022-12-15T00:04:58.488Z,7.30
2022-12-15T00:07:43.448Z,7.60
2022-12-15T00:10:28.697Z,7.40
2022-12-15T00:13:13.683Z,7.90
2022-12-15T00:15:59.143Z,7.77
2022-12-15T00:18:44.249Z,6.70
2022-12-15T00:21:29.287Z,6.83
2022-12-15T00:24:14.381Z,7.83
2022-12-15T00:26:59.404Z,7.97
2022-12-15T00:29:44.441Z,7.53
2022-12-15T00:32:29.384Z,7.67
2022-12-15T00:35:14.357Z,7.10
2022-12-15T00:37:59.360Z,7.53
2022-12-15T00:40:25.992Z,7.60
2022-12-15T00:42:52.591Z,8.33
2022-12-15T00:45:19.206Z,7.87
2022-12-15T00:47:45.797Z,7.67
2022-12-15T00:50:30.761Z,8.10
2022-12-15T00:53:15.835Z,8.50
2022-12-15T00:56:01.163Z,7.20
2022-12-15T00:58:46.144Z,8.57
2022-12-15T01:01:31.425Z,7.40
2022-12-15T01:04:16.573Z,8.03
2022-12-15T01:07:01.777Z,7.13
2022-12-15T01:09:46.806Z,7.93
2022-12-15T01:12:32.152Z,7.53
2022-12-15T01:15:17.265Z,7.57
2022-12-15T01:18:02.201Z,7.20
2022-12-15T01:20:32.660Z,7.67
2022-12-15T01:22:59.257Z,7.80
2022-12-15T01:25:26.038Z,7.57
2022-12-15T01:27:52.777Z,7.67
2022-12-15T01:30:21.702Z,7.77
2022-12-15T01:32:48.405Z,7.90
2022-12-15T01:35:15.229Z,7.47
2022-12-15T01:37:41.826Z,7.17
2022-12-15T01:40:27.893Z,7.23
2022-12-15T01:42:54.472Z,7.07
2022-12-15T01:45:24.080Z,7.03
2022-12-15T01:47:57.290Z,7.87
2022-12-15T01:50:24.204Z,7.77
2022-12-15T01:52:50.793Z,7.47
2022-12-15T01:55:17.606Z,7.63
2022-12-15T01:57:44.209Z,7.70
2022-12-15T02:00:12.004Z,7.00
2022-12-15T02:02:40.491Z,7.30
2022-12-15T02:05:07.628Z,7.50
2022-12-15T02:07:34.216Z,6.90
2022-12-15T02:10:02.456Z,7.53
2022-12-15T02:12:58.740Z,7.17
2022-12-15T02:15:45.588Z,7.03
2022-12-15T02:18:42.627Z,6.70
2022-12-15T02:21:18.711Z,7.17
2022-12-15T02:23:57.720Z,6.70
2022-12-15T02:26:52.526Z,6.90
2022-12-15T02:29:47.226Z,7.23
2022-12-15T02:32:15.226Z,6.93
2022-12-15T02:34:56.059Z,7.23
2022-12-15T02:37:29.341Z,7.40
2022-12-15T02:39:55.939Z,8.13
2022-12-15T02:42:22.511Z,6.70
2022-12-15T02:44:50.732Z,6.30
2022-12-15T02:47:37.623Z,6.73
2022-12-15T02:50:16.558Z,6.97
2022-12-15T02:52:43.112Z,6.77
2022-12-15T02:55:28.022Z,7.07
2022-12-15T02:58:00.694Z,6.50
2022-12-15T03:00:27.483Z,7.20
2022-12-15T03:02:54.667Z,7.10
2022-12-15T03:05:21.872Z,7.37
2022-12-15T03:07:52.838Z,6.80
2022-12-15T03:10:20.064Z,6.93
2022-12-15T03:12:46.656Z,6.73
2022-12-15T03:15:13.429Z,7.40
2022-12-15T03:17:40.062Z,6.90
2022-12-15T03:20:07.033Z,7.10
2022-12-15T03:22:33.627Z,6.73
2022-12-15T03:25:00.229Z,7.17
2022-12-15T03:27:26.810Z,7.23
2022-12-15T03:29:53.413Z,7.07
2022-12-15T03:32:20.116Z,6.50
2022-12-15T03:34:46.760Z,5.77
2022-12-15T03:37:13.448Z,6.10
2022-12-15T03:39:40.032Z,6.87
2022-12-15T03:42:06.639Z,6.33
2022-12-15T03:44:33.220Z,6.83
2022-12-15T03:47:03.291Z,6.27
2022-12-15T03:49:30.466Z,6.83
2022-12-15T03:51:57.080Z,6.37
2022-12-15T03:54:23.670Z,6.50
2022-12-15T03:56:50.297Z,6.57
2022-12-15T03:59:16.933Z,6.73
2022-12-15T04:01:46.823Z,6.20
2022-12-15T04:04:13.512Z,6.20
2022-12-15T04:06:40.147Z,6.47
2022-12-15T04:09:06.737Z,5.67
2022-12-15T04:11:33.346Z,6.30
2022-12-15T04:13:59.946Z,6.07
2022-12-15T04:16:26.610Z,6.40
2022-12-15T04:19:13.200Z,6.07
2022-12-15T04:21:39.802Z,5.33
2022-12-15T04:24:24.990Z,5.60
2022-12-15T04:27:10.227Z,6.00
2022-12-15T04:29:55.299Z,5.23
2022-12-15T04:32:40.413Z,5.27
2022-12-15T04:35:25.847Z,5.60
2022-12-15T04:38:11.025Z,5.73
2022-12-15T04:40:56.066Z,5.17
2022-12-15T04:43:41.086Z,5.20
2022-12-15T04:46:26.151Z,5.17
2022-12-15T04:49:11.298Z,5.40
2022-12-15T04:51:56.523Z,5.50
2022-12-15T04:54:41.413Z,5.87
2022-12-15T04:57:26.453Z,5.63
2022-12-15T05:00:11.470Z,5.23
2022-12-15T05:02:56.540Z,5.70
2022-12-15T05:05:41.519Z,5.67
2022-12-15T05:08:26.545Z,5.30
2022-12-15T05:11:11.472Z,5.73
2022-12-15T05:13:56.421Z,4.60
2022-12-15T05:16:41.438Z,5.30
2022-12-15T05:19:26.492Z,4.40
2022-12-15T05:22:11.802Z,5.13
2022-12-15T05:24:56.816Z,4.53
2022-12-15T05:27:41.985Z,5.07
2022-12-15T05:30:27.749Z,4.83
2022-12-15T05:32:54.462Z,4.60
2022-12-15T05:35:21.048Z,5.67
2022-12-15T05:37:47.658Z,4.67
2022-12-15T05:40:14.274Z,4.77
2022-12-15T05:42:40.870Z,5.07
2022-12-15T05:45:07.953Z,4.90
2022-12-15T05:47:34.554Z,5.07
2022-12-15T05:50:01.136Z,5.07
2022-12-15T05:52:27.813Z,4.97
2022-12-15T05:54:54.405Z,4.30
2022-12-15T05:57:21.156Z,4.67
2022-12-15T05:59:47.738Z,4.70
2022-12-15T06:02:14.448Z,5.47
2022-12-15T06:04:41.361Z,6.30
2022-12-15T06:07:07.987Z,6.80
2022-12-15T06:09:34.569Z,5.87
2022-12-15T06:12:01.159Z,6.43
2022-12-15T06:14:27.738Z,5.70
2022-12-15T06:16:54.534Z,6.33
2022-12-15T06:19:21.224Z,7.37
2022-12-15T06:21:47.895Z,6.87
2022-12-15T06:24:14.484Z,7.23
2022-12-15T06:26:44.904Z,7.23
2022-12-15T06:29:11.915Z,8.10
2022-12-15T06:31:40.311Z,8.33
2022-12-15T06:34:08.527Z,8.20
2022-12-15T06:36:35.332Z,8.33
2022-12-15T06:39:02.768Z,8.73
2022-12-15T06:41:31.971Z,8.27
2022-12-15T06:43:58.831Z,7.87
2022-12-15T06:46:26.339Z,8.77
2022-12-15T06:48:53.146Z,7.37
2022-12-15T06:51:19.820Z,5.73
2022-12-15T06:53:49.826Z,6.07
2022-12-15T06:56:33.686Z,6.07
2022-12-15T06:59:01.607Z,5.47
2022-12-15T07:01:28.312Z,5.37
2022-12-15T07:03:55.611Z,4.93
2022-12-15T07:06:22.446Z,4.93
2022-12-15T07:08:52.378Z,4.93
2022-12-15T07:11:20.680Z,5.53
2022-12-15T07:13:53.797Z,4.87
2022-12-15T07:16:21.500Z,5.00
2022-12-15T07:18:48.317Z,4.90
2022-12-15T07:21:14.936Z,4.40
2022-12-15T07:23:57.925Z,4.77
2022-12-15T07:26:25.063Z,4.43
2022-12-15T07:28:52.835Z,4.57
2022-12-15T07:31:19.508Z,4.70
2022-12-15T07:33:48.129Z,4.50
2022-12-15T07:36:14.753Z,4.40
2022-12-15T07:38:41.373Z,4.53
2022-12-15T07:41:08.141Z,5.40
2022-12-15T07:43:35.740Z,4.43
2022-12-15T07:46:03.588Z,4.60
2022-12-15T07:48:30.308Z,4.13
2022-12-15T07:51:08.442Z,4.73
2022-12-15T07:53:38.185Z,4.90
2022-12-15T07:56:08.470Z,4.20
2022-12-15T07:58:35.883Z,3.70
2022-12-15T08:01:03.588Z,4.20
2022-12-15T08:03:30.914Z,4.27
2022-12-15T08:06:03.801Z,4.27
2022-12-15T08:08:31.295Z,3.87
2022-12-15T08:10:58.144Z,3.83
2022-12-15T08:14:00.241Z,4.20
2022-12-15T08:16:11.625Z,7.17
2022-12-15T08:18:39.455Z,7.63
2022-12-15T08:21:07.992Z,7.97
2022-12-15T08:23:35.222Z,8.73
2022-12-15T08:26:06.804Z,7.63
2022-12-15T08:28:34.411Z,7.20
2022-12-15T08:31:09.193Z,6.17
2022-12-15T08:33:36.110Z,6.37
2022-12-15T08:36:04.434Z,5.43
2022-12-15T08:38:31.467Z,5.67
2022-12-15T08:40:58.069Z,5.57
2022-12-15T08:43:24.817Z,5.83
2022-12-15T08:45:51.459Z,5.60
2022-12-15T08:48:18.067Z,6.60
2022-12-15T08:50:45.609Z,5.70
2022-12-15T08:53:41.224Z,6.20
2022-12-15T08:56:06.152Z,7.03
2022-12-15T08:58:33.292Z,6.87
2022-12-15T09:01:01.435Z,6.27
2022-12-15T09:03:28.648Z,5.80
2022-12-15T09:05:57.433Z,5.03
2022-12-15T09:08:24.552Z,5.47
2022-12-15T09:10:52.292Z,4.70
2022-12-15T09:13:19.308Z,4.60
2022-12-15T09:16:08.904Z,4.13
2022-12-15T09:18:32.676Z,4.13
2022-12-15T09:21:03.375Z,3.63
2022-12-15T09:23:30.668Z,3.40
2022-12-15T09:26:01.527Z,3.30
2022-12-15T09:28:31.980Z,3.73
2022-12-15T09:31:15.724Z,3.03
2022-12-15T09:33:42.653Z,2.60
2022-12-15T09:36:09.891Z,2.70
2022-12-15T09:38:38.151Z,2.47
2022-12-15T09:41:13.834Z,2.40
2022-12-15T09:44:00.172Z,2.40
2022-12-15T09:46:50.184Z,2.00
2022-12-15T09:49:37.059Z,2.23
2022-12-15T09:52:10.909Z,2.30
2022-12-15T09:54:38.156Z,2.03
2022-12-15T09:57:08.751Z,2.50
2022-12-15T09:59:41.218Z,2.03
2022-12-15T10:02:32.008Z,2.17
2022-12-15T10:08:23.023Z,1.93
2022-12-15T10:11:34.830Z,2.00
2022-12-15T10:14:39.685Z,1.77
2022-12-15T10:17:39.900Z,2.00
2022-12-15T10:20:21.418Z,2.10
2022-12-15T10:22:50.379Z,2.17
2022-12-15T10:25:29.679Z,2.30
2022-12-15T10:28:15.947Z,2.27
2022-12-15T10:31:16.618Z,1.90
2022-12-15T10:33:47.084Z,1.90
2022-12-15T10:36:16.952Z,2.10
2022-12-15T10:38:45.415Z,2.03
2022-12-15T10:41:12.921Z,2.20
2022-12-15T10:43:40.822Z,2.07
2022-12-15T10:46:21.806Z,2.43
2022-12-15T10:49:12.374Z,2.40
2022-12-15T10:51:43.585Z,2.70
2022-12-15T10:54:10.170Z,2.30
2022-12-15T10:56:50.508Z,2.60
2022-12-15T10:59:23.371Z,2.20
2022-12-15T11:01:50.839Z,2.27
2022-12-15T11:04:31.538Z,2.00
2022-12-15T11:07:02.632Z,2.00
2022-12-15T11:09:38.864Z,2.20
2022-12-15T11:12:50.415Z,2.10
2022-12-15T11:15:23.424Z,1.90
2022-12-15T11:18:28.365Z,2.00
2022-12-15T11:21:47.146Z,2.47
2022-12-15T11:24:21.692Z,2.50
2022-12-15T11:29:50.041Z,1.70
2022-12-15T11:32:24.834Z,1.77
2022-12-15T11:34:51.428Z,1.93
2022-12-15T11:37:20.746Z,1.90
2022-12-15T11:39:57.151Z,2.10
2022-12-15T11:42:45.417Z,1.53
2022-12-15T11:45:41.071Z,1.73
2022-12-15T11:48:17.986Z,2.17
2022-12-15T11:50:47.381Z,1.80
2022-12-15T11:53:37.890Z,1.80
2022-12-15T11:56:35.299Z,1.90
2022-12-15T11:59:23.366Z,1.60
2022-12-15T12:02:02.792Z,1.70
2022-12-15T12:04:35.981Z,1.50
2022-12-15T12:07:09.943Z,1.87
2022-12-15T12:09:38.146Z,1.60
2022-12-15T12:12:13.192Z,1.70
2022-12-15T12:14:51.230Z,1.70
2022-12-15T12:17:23.950Z,1.40
2022-12-15T12:19:58.611Z,1.57
2022-12-15T12:22:42.670Z,1.20
2022-12-15T12:25:15.793Z,1.37
2022-12-15T12:30:42.650Z,1.60
2022-12-15T12:33:36.577Z,1.37
2022-12-15T12:36:14.435Z,1.20
2022-12-15T12:38:50.958Z,1.30
2022-12-15T12:41:32.790Z,1.40
2022-12-15T12:44:01.141Z,1.33
2022-12-15T12:46:29.185Z,1.13
2022-12-15T12:49:05.949Z,1.30
2022-12-15T12:51:37.210Z,1.30
2022-12-15T12:54:09.956Z,1.27
2022-12-15T12:56:38.013Z,1.30
2022-12-15T12:59:24.058Z,1.30
2022-12-15T13:01:50.768Z,1.20
2022-12-15T13:04:29.873Z,1.10
2022-12-15T13:06:59.675Z,1.20
2022-12-15T13:09:44.653Z,1.20
2022-12-15T13:12:54.151Z,1.20
2022-12-15T13:15:27.300Z,1.10
2022-12-15T13:18:16.608Z,1.30
2022-12-15T13:20:43.867Z,1.50
2022-12-15T13:23:19.405Z,1.60
2022-12-15T13:25:55.904Z,1.47
2022-12-15T13:28:27.045Z,1.40
2022-12-15T13:31:17.017Z,1.53
2022-12-15T13:33:52.763Z,1.20
2022-12-15T13:36:37.670Z,1.40
2022-12-15T13:39:11.097Z,1.30
2022-12-15T13:42:15.366Z,1.60
2022-12-15T13:44:39.521Z,1.43
2022-12-15T13:47:27.561Z,1.30
2022-12-15T13:50:26.242Z,1.40
2022-12-15T13:53:18.710Z,1.30
2022-12-15T13:55:46.362Z,1.00
2022-12-15T13:58:18.374Z,1.10
2022-12-15T14:00:55.760Z,1.30
2022-12-15T14:03:22.673Z,1.00
2022-12-15T14:05:53.711Z,1.07
2022-12-15T14:08:21.602Z,1.30
2022-12-15T14:10:51.141Z,1.47
2022-12-15T14:13:31.918Z,1.43
2022-12-15T14:16:00.422Z,1.17
2022-12-15T14:18:28.412Z,1.40
2022-12-15T14:20:55.112Z,1.20
2022-12-15T14:23:29.980Z,1.20
2022-12-15T14:26:01.898Z,1.10
2022-12-15T14:28:35.969Z,1.23
2022-12-15T14:31:04.680Z,1.10
2022-12-15T14:33:35.506Z,1.33
2022-12-15T14:36:02.509Z,0.97
2022-12-15T14:38:43.633Z,1.03
2022-12-15T14:41:19.241Z,1.13
2022-12-15T14:43:46.238Z,1.30
2022-12-15T14:46:32.876Z,1.10
2022-12-15T14:49:03.201Z,1.00
2022-12-15T14:51:31.008Z,1.27
2022-12-15T14:53:57.618Z,1.03
2022-12-15T14:56:30.533Z,1.20
2022-12-15T14:59:16.226Z,1.23
2022-12-15T15:03:04.784Z,1.90
2022-12-15T15:03:09.751Z,1.10
2022-12-15T15:03:10.573Z,1.97
2022-12-15T15:03:12.731Z,1.50
2022-12-15T15:04:40.590Z,1.30
2022-12-15T15:07:15.637Z,1.20
2022-12-15T15:09:42.675Z,1.30
2022-12-15T15:12:15.636Z,1.30
2022-12-15T15:14:45.944Z,1.10
2022-12-15T15:17:21.241Z,1.30
2022-12-15T15:19:50.712Z,1.30
2022-12-15T15:22:42.307Z,1.17
2022-12-15T15:25:33.634Z,1.33
2022-12-15T15:28:18.292Z,1.17
2022-12-15T15:30:49.361Z,1.07
2022-12-15T15:33:16.464Z,1.70
2022-12-15T15:35:43.568Z,1.27
2022-12-15T15:38:29.474Z,1.70
2022-12-15T15:40:57.187Z,1.50
2022-12-15T15:43:25.260Z,1.60
2022-12-15T15:46:01.711Z,1.53
2022-12-15T15:48:39.523Z,1.80
2022-12-15T15:51:06.249Z,1.63
2022-12-15T15:53:36.273Z,1.60
2022-12-15T15:56:06.376Z,1.70
2022-12-15T15:58:34.243Z,1.60
2022-12-15T16:01:01.376Z,1.90
2022-12-15T16:03:28.566Z,1.43
2022-12-15T16:05:55.310Z,2.00
2022-12-15T16:08:27.234Z,1.90
2022-12-15T16:10:53.842Z,1.73
2022-12-15T16:13:25.957Z,1.90
2022-12-15T16:15:53.423Z,1.70
2022-12-15T16:18:20.198Z,1.73
2022-12-15T16:20:48.937Z,1.80
2022-12-15T16:23:20.156Z,1.70
2022-12-15T16:25:53.823Z,1.80
2022-12-15T16:28:25.629Z,2.00
2022-12-15T16:30:52.344Z,1.73
2022-12-15T16:33:19.195Z,1.80
2022-12-15T16:35:48.073Z,2.00
2022-12-15T16:38:21.636Z,1.77
2022-12-15T16:40:48.241Z,2.00
2022-12-15T16:43:24.132Z,2.63
2022-12-15T16:45:53.090Z,3.50
2022-12-15T16:48:19.950Z,3.47
2022-12-15T16:50:50.231Z,3.07
2022-12-15T16:53:23.326Z,2.83
2022-12-15T16:55:52.848Z,3.23
2022-12-15T16:58:19.455Z,9.17
2022-12-15T17:00:46.157Z,10.27
2022-12-15T17:03:14.210Z,8.40
2022-12-15T17:05:41.239Z,6.50
2022-12-15T17:08:18.919Z,4.53
2022-12-15T17:10:46.085Z,3.87
2022-12-15T17:13:45.134Z,3.73
2022-12-15T17:16:14.178Z,3.70
2022-12-15T17:18:42.810Z,3.30
2022-12-15T17:21:16.506Z,3.40
2022-12-15T17:23:48.375Z,3.10
2022-12-15T17:26:27.671Z,3.10
2022-12-15T17:28:56.251Z,3.40
2022-12-15T17:31:23.913Z,3.27
2022-12-15T17:33:50.716Z,3.40
2022-12-15T17:36:20.306Z,3.27
2022-12-15T17:38:47.459Z,3.20
2022-12-15T17:41:34.994Z,3.27
2022-12-15T17:46:47.824Z,3.37
2022-12-15T17:49:14.514Z,3.17
2022-12-15T17:51:42.728Z,3.33
2022-12-15T17:54:14.699Z,4.03
2022-12-15T17:56:48.265Z,5.47
2022-12-15T17:59:16.845Z,6.30
2022-12-15T18:01:43.525Z,7.20
2022-12-15T18:04:10.521Z,7.97
2022-12-15T18:06:38.056Z,7.60
2022-12-15T18:09:05.841Z,7.17
2022-12-15T18:11:32.475Z,7.33
2022-12-15T18:13:59.114Z,6.30
2022-12-15T18:16:25.752Z,6.00
2022-12-15T18:18:52.588Z,6.10
2022-12-15T18:21:19.263Z,4.77
2022-12-15T18:23:47.474Z,4.80
2022-12-15T18:26:14.307Z,4.57
2022-12-15T18:28:41.015Z,4.87
2022-12-15T18:31:19.565Z,5.03
2022-12-15T18:33:46.216Z,5.60
2022-12-15T18:36:12.920Z,6.60
2022-12-15T18:38:39.570Z,9.03
2022-12-15T18:41:06.893Z,8.10
2022-12-15T18:43:34.163Z,7.90
2022-12-15T18:46:01.062Z,7.67
2022-12-15T18:48:29.452Z,8.17
2022-12-15T18:50:57.058Z,7.97
2022-12-15T18:53:35.023Z,9.13
2022-12-15T18:56:03.203Z,12.63
2022-12-15T18:58:31.706Z,12.53
2022-12-15T19:00:59.299Z,10.90
2022-12-15T19:03:26.355Z,9.87
2022-12-15T19:06:14.530Z,9.97
2022-12-15T19:08:41.187Z,11.00
2022-12-15T19:11:11.862Z,12.40
2022-12-15T19:13:39.070Z,10.50
2022-12-15T19:16:07.045Z,10.20
2022-12-15T19:18:52.175Z,9.30
2022-12-15T19:21:47.181Z,9.40
2022-12-15T19:24:16.034Z,9.63
2022-12-15T19:26:43.039Z,9.57
2022-12-15T19:29:23.513Z,11.13
2022-12-15T19:31:51.300Z,9.80
2022-12-15T19:34:17.948Z,10.33
2022-12-15T19:36:44.551Z,10.00
2022-12-15T19:39:18.972Z,10.30
2022-12-15T19:41:45.602Z,11.80
2022-12-15T19:44:15.396Z,11.90
2022-12-15T19:46:42.352Z,11.90
2022-12-15T19:49:09.163Z,11.87
2022-12-15T19:51:35.854Z,12.63
2022-12-15T19:54:02.526Z,11.47
2022-12-15T19:56:29.237Z,12.27
2022-12-15T19:58:55.853Z,13.30
2022-12-15T20:01:22.609Z,13.97
2022-12-15T20:03:52.113Z,13.33
2022-12-15T20:06:26.041Z,13.53
2022-12-15T20:08:55.821Z,10.97
2022-12-15T20:11:24.452Z,9.73
2022-12-15T20:13:51.229Z,9.50
2022-12-15T20:16:19.080Z,8.70
2022-12-15T20:18:46.557Z,8.30
2022-12-15T20:21:16.798Z,8.00
2022-12-15T20:23:57.489Z,7.93
2022-12-15T20:26:24.666Z,8.43
2022-12-15T20:28:52.142Z,7.60
2022-12-15T20:31:21.440Z,6.87
2022-12-15T20:33:48.254Z,6.67
2022-12-15T20:36:28.284Z,7.53
2022-12-15T20:38:54.896Z,7.23
2022-12-15T20:41:23.052Z,7.63
2022-12-15T20:43:49.856Z,7.83
2022-12-15T20:46:24.368Z,8.10
2022-12-15T20:48:51.702Z,8.60
2022-12-15T20:51:25.108Z,8.37
2022-12-15T20:53:52.250Z,8.50
2022-12-15T20:56:20.948Z,7.87
2022-12-15T20:58:47.619Z,8.00
2022-12-15T21:01:26.208Z,7.67
2022-12-15T21:03:55.613Z,7.40
2022-12-15T21:06:23.040Z,6.87
2022-12-15T21:08:49.651Z,7.60
2022-12-15T21:11:26.651Z,7.23
2022-12-15T21:13:54.633Z,7.33
2022-12-15T21:16:28.446Z,7.47
2022-12-15T21:19:19.274Z,8.03
2022-12-15T21:21:52.995Z,7.17
2022-12-15T21:24:26.669Z,7.33
2022-12-15T21:26:53.653Z,7.83
2022-12-15T21:29:21.749Z,7.70
2022-12-15T21:31:48.367Z,7.53
2022-12-15T21:34:15.254Z,7.10
2022-12-15T21:36:42.845Z,7.20
2022-12-15T21:39:11.565Z,7.27
2022-12-15T21:41:39.932Z,6.83
2022-12-15T21:44:12.135Z,7.13
2022-12-15T21:46:38.799Z,6.83
2022-12-15T21:49:14.371Z,7.40
2022-12-15T21:51:50.811Z,6.73
2022-12-15T21:54:19.931Z,7.00
2022-12-15T21:56:47.931Z,6.97
2022-12-15T21:59:15.849Z,8.07
2022-12-15T22:01:42.704Z,6.93
2022-12-15T22:04:20.941Z,7.77
2022-12-15T22:06:50.830Z,7.23
2022-12-15T22:09:18.520Z,7.43
2022-12-15T22:11:46.835Z,7.60
2022-12-15T22:14:21.994Z,8.37
2022-12-15T22:16:48.585Z,7.20
2022-12-15T22:19:15.190Z,7.23
2022-12-15T22:21:42.236Z,7.80
2022-12-15T22:24:09.599Z,8.17
2022-12-15T22:26:36.411Z,8.20
2022-12-15T22:29:03.329Z,9.37
2022-12-15T22:31:30.299Z,9.33
2022-12-15T22:33:56.902Z,8.57
2022-12-15T22:36:23.517Z,8.87
2022-12-15T22:38:53.467Z,8.87
2022-12-15T22:41:21.877Z,8.97
2022-12-15T22:43:52.503Z,8.13
2022-12-15T22:46:19.275Z,8.40
2022-12-15T22:48:47.296Z,7.87
2022-12-15T22:51:14.759Z,8.17
2022-12-15T22:53:41.531Z,7.83
2022-12-15T22:56:28.664Z,8.07
2022-12-15T22:59:03.121Z,8.03
2022-12-15T23:01:29.902Z,8.67
2022-12-15T23:03:56.590Z,8.07
2022-12-15T23:06:23.580Z,7.97
2022-12-15T23:08:55.834Z,7.90
2022-12-15T23:11:38.296Z,7.30
2022-12-15T23:14:10.201Z,7.27
2022-12-15T23:16:36.827Z,6.90
2022-12-15T23:19:03.762Z,6.70
2022-12-15T23:21:30.665Z,6.60
2022-12-15T23:23:57.741Z,6.97
2022-12-15T23:26:25.813Z,6.43
2022-12-15T23:28:53.245Z,7.20
2022-12-15T23:31:22.058Z,6.40
2022-12-15T23:33:49.784Z,6.10
2022-12-15T23:36:18.640Z,6.10
2022-12-15T23:38:45.277Z,6.13
2022-12-15T23:41:15.660Z,5.90
2022-12-15T23:43:42.268Z,5.50
2022-12-15T23:46:08.941Z,5.63
2022-12-15T23:48:40.664Z,5.27
2022-12-15T23:51:17.847Z,6.23
2022-12-15T23:53:45.205Z,6.63
2022-12-15T23:56:16.654Z,6.57
2022-12-15T23:58:43.728Z,6.07
